sensor_id;sensor_type;location;lat;lon;timestamp;P1;durP1;ratioP1;P2;durP2;ratioP2
6862;SDS011;3470;48.738;9.616;2023-05-10T16:58:13;2.03;;;1.80;;
6862;SDS011;3470;48.738;9.616;2023-05-10T17:00:39;10.05;;;7.57;;
6862;SDS011;3470;48.738;9.616;2023-05-10T17:03:04;15.50;;;11.70;;
6862;SDS011;3470;48.738;9.616;2023-05-10T17:05:30;6.18;;;4.72;;
6862;SDS011;3470;48.738;9.616;2023-05-10T17:07:55;5.25;;;1.80;;
6862;SDS011;3470;48.738;9.616;2023-05-10T17:10:21;2.45;;;1.80;;
6862;SDS011;3470;48.738;9.616;2023-05-10T17:12:46;2.97;;;1.83;;
6862;SDS011;3470;48.738;9.616;2023-05-10T17:15:15;4.95;;;2.25;;
6862;SDS011;3470;48.738;9.616;2023-05-10T17:17:42;4.45;;;1.75;;
6862;SDS011;3470;48.738;9.616;2023-05-10T17:20:08;3.35;;;1.83;;
6862;SDS011;3470;48.738;9.616;2023-05-10T17:22:34;2.60;;;1.58;;
6862;SDS011;3470;48.738;9.616;2023-05-10T17:25:00;2.42;;;1.70;;
6862;SDS011;3470;48.738;9.616;2023-05-10T17:27:26;2.08;;;1.80;;
6862;SDS011;3470;48.738;9.616;2023-05-10T17:29:56;1.73;;;1.63;;
6862;SDS011;3470;48.738;9.616;2023-05-10T17:32:22;2.33;;;1.80;;
6862;SDS011;3470;48.738;9.616;2023-05-10T17:34:47;4.65;;;1.90;;
6862;SDS011;3470;48.738;9.616;2023-05-10T17:37:13;4.57;;;2.08;;
6862;SDS011;3470;48.738;9.616;2023-05-10T17:39:38;2.92;;;1.77;;
6862;SDS011;3470;48.738;9.616;2023-05-10T17:42:04;2.60;;;1.77;;
6862;SDS011;3470;48.738;9.616;2023-05-10T17:44:30;3.05;;;2.58;;
6862;SDS011;3470;48.738;9.616;2023-05-10T17:46:55;2.97;;;2.10;;
6862;SDS011;3470;48.738;9.616;2023-05-10T17:49:21;3.05;;;2.10;;
6862;SDS011;3470;48.738;9.616;2023-05-10T17:51:46;7.47;;;2.75;;
6862;SDS011;3470;48.738;9.616;2023-05-10T17:54:12;4.32;;;2.60;;
6862;SDS011;3470;48.738;9.616;2023-05-10T17:56:38;5.82;;;2.85;;
6862;SDS011;3470;48.738;9.616;2023-05-10T17:59:04;4.88;;;3.65;;
6862;SDS011;3470;48.738;9.616;2023-05-10T18:01:30;3.75;;;2.70;;
6862;SDS011;3470;48.738;9.616;2023-05-10T18:03:56;3.03;;;2.55;;
6862;SDS011;3470;48.738;9.616;2023-05-10T18:06:21;5.78;;;2.60;;
6862;SDS011;3470;48.738;9.616;2023-05-10T18:08:47;3.03;;;2.70;;
6862;SDS011;3470;48.738;9.616;2023-05-10T18:11:13;3.65;;;2.53;;
6862;SDS011;3470;48.738;9.616;2023-05-10T18:13:38;4.03;;;2.80;;
6862;SDS011;3470;48.738;9.616;2023-05-10T18:16:04;2.47;;;2.28;;
6862;SDS011;3470;48.738;9.616;2023-05-10T18:18:32;2.55;;;2.28;;
6862;SDS011;3470;48.738;9.616;2023-05-10T18:20:59;2.70;;;2.10;;
6862;SDS011;3470;48.738;9.616;2023-05-10T18:23:24;7.00;;;2.30;;
6862;SDS011;3470;48.738;9.616;2023-05-10T18:25:50;5.57;;;2.10;;
6862;SDS011;3470;48.738;9.616;2023-05-10T18:28:16;4.93;;;2.33;;
6862;SDS011;3470;48.738;9.616;2023-05-10T18:30:42;3.10;;;2.22;;
6862;SDS011;3470;48.738;9.616;2023-05-10T18:33:08;3.13;;;2.40;;
6862;SDS011;3470;48.738;9.616;2023-05-10T18:35:36;4.00;;;2.67;;
6862;SDS011;3470;48.738;9.616;2023-05-10T18:38:02;3.00;;;2.17;;
6862;SDS011;3470;48.738;9.616;2023-05-10T18:40:28;4.85;;;2.72;;
6862;SDS011;3470;48.738;9.616;2023-05-10T18:42:53;4.23;;;2.73;;
6862;SDS011;3470;48.738;9.616;2023-05-10T18:45:19;3.20;;;2.55;;
6862;SDS011;3470;48.738;9.616;2023-05-10T18:47:45;3.20;;;2.67;;
6862;SDS011;3470;48.738;9.616;2023-05-10T18:50:10;4.47;;;2.70;;
6862;SDS011;3470;48.738;9.616;2023-05-10T18:52:37;5.80;;;3.60;;
6862;SDS011;3470;48.738;9.616;2023-05-10T18:55:02;5.97;;;3.70;;
6862;SDS011;3470;48.738;9.616;2023-05-10T18:57:28;5.83;;;3.97;;
6862;SDS011;3470;48.738;9.616;2023-05-10T18:59:54;5.17;;;3.33;;
6862;SDS011;3470;48.738;9.616;2023-05-10T19:02:19;6.27;;;2.80;;
6862;SDS011;3470;48.738;9.616;2023-05-10T19:04:45;3.93;;;2.97;;
6862;SDS011;3470;48.738;9.616;2023-05-10T19:07:10;3.67;;;3.07;;
6862;SDS011;3470;48.738;9.616;2023-05-10T19:09:36;4.80;;;2.80;;
6862;SDS011;3470;48.738;9.616;2023-05-10T19:12:02;2.77;;;2.40;;
6862;SDS011;3470;48.738;9.616;2023-05-10T19:14:27;4.40;;;2.27;;
6862;SDS011;3470;48.738;9.616;2023-05-10T19:16:53;5.23;;;2.40;;
6862;SDS011;3470;48.738;9.616;2023-05-10T19:19:19;3.47;;;2.07;;
6862;SDS011;3470;48.738;9.616;2023-05-10T19:21:44;2.60;;;2.10;;
6862;SDS011;3470;48.738;9.616;2023-05-10T19:24:10;5.37;;;2.13;;
6862;SDS011;3470;48.738;9.616;2023-05-10T19:26:36;2.63;;;1.97;;
6862;SDS011;3470;48.738;9.616;2023-05-10T19:29:01;4.80;;;2.10;;
6862;SDS011;3470;48.738;9.616;2023-05-10T19:31:27;2.37;;;2.00;;
6862;SDS011;3470;48.738;9.616;2023-05-10T19:33:53;4.00;;;2.23;;
6862;SDS011;3470;48.738;9.616;2023-05-10T19:36:18;2.47;;;2.00;;
6862;SDS011;3470;48.738;9.616;2023-05-10T19:38:44;4.13;;;2.07;;
6862;SDS011;3470;48.738;9.616;2023-05-10T19:41:10;2.43;;;2.10;;
6862;SDS011;3470;48.738;9.616;2023-05-10T19:43:36;2.43;;;2.20;;
6862;SDS011;3470;48.738;9.616;2023-05-10T19:46:03;2.63;;;2.43;;
6862;SDS011;3470;48.738;9.616;2023-05-10T19:48:29;4.07;;;2.00;;
6862;SDS011;3470;48.738;9.616;2023-05-10T19:51:02;3.83;;;2.53;;
6862;SDS011;3470;48.738;9.616;2023-05-10T19:53:28;6.90;;;2.20;;
6862;SDS011;3470;48.738;9.616;2023-05-10T19:55:54;3.40;;;2.10;;
6862;SDS011;3470;48.738;9.616;2023-05-10T19:58:20;2.67;;;1.83;;
6862;SDS011;3470;48.738;9.616;2023-05-10T20:00:46;1.93;;;1.63;;
6862;SDS011;3470;48.738;9.616;2023-05-10T20:03:11;3.47;;;2.17;;
6862;SDS011;3470;48.738;9.616;2023-05-10T20:05:37;4.43;;;2.30;;
6862;SDS011;3470;48.738;9.616;2023-05-10T20:08:03;4.63;;;2.50;;
6862;SDS011;3470;48.738;9.616;2023-05-10T20:10:31;4.07;;;2.20;;
6862;SDS011;3470;48.738;9.616;2023-05-10T20:12:57;3.47;;;2.40;;
6862;SDS011;3470;48.738;9.616;2023-05-10T20:15:24;3.17;;;2.20;;
6862;SDS011;3470;48.738;9.616;2023-05-10T20:17:50;4.00;;;1.80;;
6862;SDS011;3470;48.738;9.616;2023-05-10T20:20:17;2.83;;;1.90;;
6862;SDS011;3470;48.738;9.616;2023-05-10T20:22:43;3.60;;;1.97;;
6862;SDS011;3470;48.738;9.616;2023-05-10T20:25:09;2.67;;;2.40;;
6862;SDS011;3470;48.738;9.616;2023-05-10T20:27:35;3.37;;;2.03;;
6862;SDS011;3470;48.738;9.616;2023-05-10T20:30:01;3.37;;;2.20;;
6862;SDS011;3470;48.738;9.616;2023-05-10T20:32:27;4.27;;;2.60;;
6862;SDS011;3470;48.738;9.616;2023-05-10T20:34:53;2.93;;;2.43;;
6862;SDS011;3470;48.738;9.616;2023-05-10T20:37:18;3.53;;;2.83;;
6862;SDS011;3470;48.738;9.616;2023-05-10T20:39:44;3.57;;;2.60;;
6862;SDS011;3470;48.738;9.616;2023-05-10T20:42:09;5.07;;;3.10;;
6862;SDS011;3470;48.738;9.616;2023-05-10T20:44:35;5.13;;;3.23;;
6862;SDS011;3470;48.738;9.616;2023-05-10T20:47:01;5.83;;;3.77;;
6862;SDS011;3470;48.738;9.616;2023-05-10T20:49:26;4.07;;;3.77;;
6862;SDS011;3470;48.738;9.616;2023-05-10T20:51:53;4.77;;;3.93;;
6862;SDS011;3470;48.738;9.616;2023-05-10T20:54:20;6.37;;;4.40;;
6862;SDS011;3470;48.738;9.616;2023-05-10T20:56:47;9.47;;;4.43;;
6862;SDS011;3470;48.738;9.616;2023-05-10T20:59:12;5.13;;;4.63;;
6862;SDS011;3470;48.738;9.616;2023-05-10T21:01:38;7.80;;;4.50;;
6862;SDS011;3470;48.738;9.616;2023-05-10T21:04:04;6.70;;;4.33;;
6862;SDS011;3470;48.738;9.616;2023-05-10T21:06:29;6.30;;;5.07;;
6862;SDS011;3470;48.738;9.616;2023-05-10T21:08:56;7.03;;;4.80;;
6862;SDS011;3470;48.738;9.616;2023-05-10T21:11:23;5.37;;;4.70;;
6862;SDS011;3470;48.738;9.616;2023-05-10T21:13:49;5.53;;;4.97;;
6862;SDS011;3470;48.738;9.616;2023-05-10T21:16:15;6.57;;;5.40;;
6862;SDS011;3470;48.738;9.616;2023-05-10T21:18:41;7.00;;;5.83;;
6862;SDS011;3470;48.738;9.616;2023-05-10T21:21:06;7.30;;;6.30;;
6862;SDS011;3470;48.738;9.616;2023-05-10T21:23:32;7.73;;;6.53;;
6862;SDS011;3470;48.738;9.616;2023-05-10T21:25:57;7.43;;;6.40;;
6862;SDS011;3470;48.738;9.616;2023-05-10T21:28:23;5.80;;;4.93;;
6862;SDS011;3470;48.738;9.616;2023-05-10T21:30:48;5.50;;;4.30;;
6862;SDS011;3470;48.738;9.616;2023-05-10T21:33:15;5.73;;;4.47;;
6862;SDS011;3470;48.738;9.616;2023-05-10T21:35:43;6.60;;;5.00;;
6862;SDS011;3470;48.738;9.616;2023-05-10T21:38:09;6.83;;;4.47;;
6862;SDS011;3470;48.738;9.616;2023-05-10T21:40:36;4.27;;;3.87;;
6862;SDS011;3470;48.738;9.616;2023-05-10T21:43:02;5.27;;;3.47;;
6862;SDS011;3470;48.738;9.616;2023-05-10T21:45:28;2.80;;;2.60;;
6862;SDS011;3470;48.738;9.616;2023-05-10T21:47:56;2.97;;;2.13;;
6862;SDS011;3470;48.738;9.616;2023-05-10T21:50:22;3.10;;;2.10;;
6862;SDS011;3470;48.738;9.616;2023-05-10T21:52:48;3.17;;;2.20;;
6862;SDS011;3470;48.738;9.616;2023-05-10T21:55:14;2.13;;;1.93;;
6862;SDS011;3470;48.738;9.616;2023-05-10T21:57:39;3.27;;;1.80;;
6862;SDS011;3470;48.738;9.616;2023-05-10T22:00:07;2.80;;;1.60;;
6862;SDS011;3470;48.738;9.616;2023-05-10T22:02:34;2.37;;;2.07;;
6862;SDS011;3470;48.738;9.616;2023-05-10T22:05:00;3.23;;;2.20;;
6862;SDS011;3470;48.738;9.616;2023-05-10T22:07:29;2.63;;;1.90;;
6862;SDS011;3470;48.738;9.616;2023-05-10T22:09:55;2.10;;;1.90;;
6862;SDS011;3470;48.738;9.616;2023-05-10T22:12:21;2.60;;;1.97;;
6862;SDS011;3470;48.738;9.616;2023-05-10T22:14:46;2.63;;;1.77;;
6862;SDS011;3470;48.738;9.616;2023-05-10T22:17:12;2.20;;;2.00;;
6862;SDS011;3470;48.738;9.616;2023-05-10T22:19:37;1.67;;;1.57;;
6862;SDS011;3470;48.738;9.616;2023-05-10T22:22:03;2.37;;;1.80;;
6862;SDS011;3470;48.738;9.616;2023-05-10T22:24:29;2.33;;;1.83;;
6862;SDS011;3470;48.738;9.616;2023-05-10T22:26:55;3.37;;;2.03;;
6862;SDS011;3470;48.738;9.616;2023-05-10T22:29:21;3.30;;;1.80;;
6862;SDS011;3470;48.738;9.616;2023-05-10T22:31:47;2.53;;;1.80;;
6862;SDS011;3470;48.738;9.616;2023-05-10T22:34:13;3.80;;;2.10;;
6862;SDS011;3470;48.738;9.616;2023-05-10T22:36:38;3.67;;;2.10;;
6862;SDS011;3470;48.738;9.616;2023-05-10T22:39:04;1.90;;;1.80;;
6862;SDS011;3470;48.738;9.616;2023-05-10T22:41:30;2.03;;;1.83;;
6862;SDS011;3470;48.738;9.616;2023-05-10T22:43:56;4.63;;;1.90;;
6862;SDS011;3470;48.738;9.616;2023-05-10T22:46:22;2.50;;;1.90;;
6862;SDS011;3470;48.738;9.616;2023-05-10T22:48:47;2.77;;;1.70;;
6862;SDS011;3470;48.738;9.616;2023-05-10T22:51:13;2.20;;;2.00;;
6862;SDS011;3470;48.738;9.616;2023-05-10T22:53:39;3.23;;;2.10;;
6862;SDS011;3470;48.738;9.616;2023-05-10T22:56:05;3.37;;;1.70;;
6862;SDS011;3470;48.738;9.616;2023-05-10T22:58:31;2.70;;;2.10;;
6862;SDS011;3470;48.738;9.616;2023-05-10T23:00:56;3.50;;;2.10;;
6862;SDS011;3470;48.738;9.616;2023-05-10T23:03:22;3.23;;;2.17;;
6862;SDS011;3470;48.738;9.616;2023-05-10T23:05:49;3.87;;;2.20;;
6862;SDS011;3470;48.738;9.616;2023-05-10T23:08:14;4.80;;;2.47;;
6862;SDS011;3470;48.738;9.616;2023-05-10T23:10:40;2.90;;;2.30;;
6862;SDS011;3470;48.738;9.616;2023-05-10T23:13:05;2.30;;;2.10;;
6862;SDS011;3470;48.738;9.616;2023-05-10T23:15:33;2.73;;;2.37;;
6862;SDS011;3470;48.738;9.616;2023-05-10T23:18:00;4.70;;;2.40;;
6862;SDS011;3470;48.738;9.616;2023-05-10T23:20:26;3.03;;;2.73;;
6862;SDS011;3470;48.738;9.616;2023-05-10T23:22:52;3.63;;;2.47;;
6862;SDS011;3470;48.738;9.616;2023-05-10T23:25:21;5.63;;;2.20;;
6862;SDS011;3470;48.738;9.616;2023-05-10T23:27:47;4.23;;;2.50;;
6862;SDS011;3470;48.738;9.616;2023-05-10T23:30:12;2.30;;;2.03;;
6862;SDS011;3470;48.738;9.616;2023-05-10T23:32:38;2.47;;;2.10;;
6862;SDS011;3470;48.738;9.616;2023-05-10T23:35:04;3.43;;;2.20;;
